Time;durP1;ratioP1;P1;durP2;ratioP2;P2;SDS_P1;SDS_P2;PMS_P1;PMS_P2;Temp;Humidity;BMP_temperature;BMP_pressure;BME280_temperature;BME280_humidity;BME280_pressure;Samples;Min_cycle;Max_cycle;Signal;HPM_P1;HPM_P2
2022/09/20 00:01:07;;;;;;;;;;;;;;;21.08;30.34;97711.94;4995538;28;857;-77
2022/09/20 00:03:36;;;;;;;;;;;;;;;20.87;30.53;97706.91;4995597;28;736;-77
2022/09/20 00:06:01;;;;;;;;;;;;;;;20.88;30.45;97705.66;4979260;28;792;-77
2022/09/20 00:08:27;;;;;;;;;;;;;;;21.00;30.06;97700.06;4996871;28;1967;-77
2022/09/20 00:11:05;;;;;;;;;;;;;;;20.88;30.35;97697.16;4998869;28;828;-77
2022/09/20 00:13:31;;;;;;;;;;;;;;;21.11;30.50;97691.25;4950447;28;857;-77
2022/09/20 00:19:31;;;;;;;;;;;;;;;20.98;30.21;97701.72;4999068;28;741;-77
2022/09/20 00:21:57;;;;;;;;;;;;;;;21.05;29.87;97695.88;4998915;28;817;-77
2022/09/20 00:24:22;;;;;;;;;;;;;;;21.01;29.96;97689.53;4982818;28;795;-77
2022/09/20 00:26:48;;;;;;;;;;;;;;;20.86;30.44;97682.69;5005722;28;896;-77
2022/09/20 00:29:13;;;;;;;;;;;;;;;20.63;30.68;97663.97;5001901;28;1906;-77
2022/09/20 00:31:41;;;;;;;;;;;;;;;20.83;30.27;97673.09;5018527;28;1128;-76
2022/09/20 00:36:51;;;;;;;;;;;;;;;20.59;30.61;97666.88;5004470;28;818;-76
2022/09/20 00:42:51;;;;;;;;;;;;;;;21.33;29.66;97655.44;5037727;28;837;-77
2022/09/20 00:45:24;;;;;;;;;;;;;;;21.24;29.75;97658.13;5022619;28;751;-77
2022/09/20 00:48:12;;;;;;;;;;;;;;;20.92;30.12;97658.28;5022604;28;724;-77
2022/09/20 00:50:58;;;;;;;;;;;;;;;20.62;30.85;97654.66;4962745;28;953;-77
2022/09/20 00:53:25;;;;;;;;;;;;;;;20.62;30.92;97640.53;4962539;28;728;-77
2022/09/20 00:55:55;;;;;;;;;;;;;;;20.76;30.52;97645.78;4978777;28;1030;-77
2022/09/20 00:58:20;;;;;;;;;;;;;;;20.59;30.71;97647.09;4962674;28;775;-77
2022/09/20 01:00:46;;;;;;;;;;;;;;;20.71;30.82;97643.50;4962928;28;912;-77
2022/09/20 01:06:46;;;;;;;;;;;;;;;21.48;29.73;97633.13;4978475;28;657;-76
2022/09/20 01:09:11;;;;;;;;;;;;;;;21.24;30.03;97632.66;4962264;28;1914;-77
2022/09/20 01:11:37;;;;;;;;;;;;;;;20.81;30.54;97642.41;4962396;28;756;-77
2022/09/20 01:14:02;;;;;;;;;;;;;;;20.96;30.26;97644.81;4962228;28;905;-77
2022/09/20 01:16:29;;;;;;;;;;;;;;;20.65;30.61;97644.50;4962373;28;839;-77
2022/09/20 01:18:55;;;;;;;;;;;;;;;20.90;30.57;97638.94;4962090;28;799;-77
2022/09/20 01:21:20;;;;;;;;;;;;;;;20.86;30.53;97638.25;4923046;29;938;-77
2022/09/20 01:27:39;;;;;;;;;;;;;;;20.67;30.93;97648.47;4961909;28;936;-76
2022/09/20 01:30:08;;;;;;;;;;;;;;;20.62;30.76;97640.53;4997689;28;1922;-77
2022/09/20 01:32:42;;;;;;;;;;;;;;;20.62;30.97;97637.72;4981576;28;802;-77
2022/09/20 01:35:10;;;;;;;;;;;;;;;21.14;30.35;97636.63;4981769;28;1089;-77
2022/09/20 01:37:39;;;;;;;;;;;;;;;21.50;29.71;97641.16;4981321;28;1232;-77
2022/09/20 01:40:09;;;;;;;;;;;;;;;21.39;29.80;97643.53;4997441;28;1124;-76
2022/09/20 01:42:39;;;;;;;;;;;;;;;21.32;30.03;97642.53;4997828;28;846;-77
2022/09/20 01:45:24;;;;;;;;;;;;;;;21.01;30.88;97644.28;4958548;29;1392;-76
2022/09/20 01:47:56;;;;;;;;;;;;;;;20.93;31.03;97637.22;4958285;29;903;-77
2022/09/20 01:50:26;;;;;;;;;;;;;;;20.93;30.71;97640.06;4958417;29;772;-77
2022/09/20 01:52:52;;;;;;;;;;;;;;;20.89;30.90;97631.69;4972378;28;945;-77
2022/09/20 01:55:23;;;;;;;;;;;;;;;21.00;31.01;97626.50;4977562;28;829;-76
2022/09/20 01:57:54;;;;;;;;;;;;;;;21.32;30.67;97617.06;4977562;28;767;-77
2022/09/20 02:00:21;;;;;;;;;;;;;;;21.58;29.94;97619.88;4961792;28;1231;-77
2022/09/20 02:03:05;;;;;;;;;;;;;;;21.17;30.51;97612.28;4978040;28;854;-77
2022/09/20 02:05:46;;;;;;;;;;;;;;;20.95;30.79;97617.78;4977700;28;778;-77
2022/09/20 02:08:19;;;;;;;;;;;;;;;21.00;31.07;97611.56;4977421;28;1977;-77
2022/09/20 02:10:44;;;;;;;;;;;;;;;20.99;31.02;97612.81;4939079;29;891;-77
2022/09/20 02:13:16;;;;;;;;;;;;;;;21.07;30.67;97609.31;4938821;29;793;-77
2022/09/20 02:15:49;;;;;;;;;;;;;;;20.89;31.00;97619.59;4926337;29;961;-77
2022/09/20 02:18:15;;;;;;;;;;;;;;;20.75;31.25;97621.59;4938778;29;967;-77
2022/09/20 02:20:49;;;;;;;;;;;;;;;21.01;31.42;97621.66;4938663;29;869;-77
2022/09/20 02:23:19;;;;;;;;;;;;;;;21.35;30.70;97628.72;4938852;29;870;-77
2022/09/20 02:25:53;;;;;;;;;;;;;;;21.16;30.53;97627.66;4938674;29;863;-77
2022/09/20 02:28:29;;;;;;;;;;;;;;;21.05;31.04;97628.78;4938590;29;1981;-77
2022/09/20 02:31:01;;;;;;;;;;;;;;;21.16;30.43;97616.34;4938340;29;795;-76
2022/09/20 02:33:44;;;;;;;;;;;;;;;20.98;30.86;97634.63;4938761;29;859;-77
2022/09/20 02:36:28;;;;;;;;;;;;;;;21.21;31.10;97619.41;4938380;29;809;-77
2022/09/20 02:38:58;;;;;;;;;;;;;;;21.68;30.11;97623.63;4938423;29;1075;-77
2022/09/20 02:45:08;;;;;;;;;;;;;;;21.27;30.62;97600.63;4977133;28;661;-77
2022/09/20 02:47:37;;;;;;;;;;;;;;;20.98;31.26;97611.22;4976705;28;801;-77
2022/09/20 02:50:16;;;;;;;;;;;;;;;21.25;31.21;97611.59;4960951;28;1907;-77
2022/09/20 02:52:51;;;;;;;;;;;;;;;21.12;31.23;97607.97;4996657;28;894;-77
2022/09/20 02:55:17;;;;;;;;;;;;;;;21.03;31.37;97608.63;5020081;28;775;-76
2022/09/20 02:57:56;;;;;;;;;;;;;;;21.01;31.50;97608.28;5020052;28;1137;-77
2022/09/20 03:00:40;;;;;;;;;;;;;;;21.03;31.42;97614.28;5019840;28;771;-77
2022/09/20 03:03:24;;;;;;;;;;;;;;;21.15;31.91;97615.56;5019744;28;800;-77
2022/09/20 03:05:52;;;;;;;;;;;;;;;21.41;31.51;97619.22;5037512;28;775;-77
2022/09/20 03:08:36;;;;;;;;;;;;;;;21.31;31.50;97618.31;5037368;28;1910;-77
2022/09/20 03:11:02;;;;;;;;;;;;;;;21.16;31.83;97622.78;5037692;28;783;-76
2022/09/20 03:13:33;;;;;;;;;;;;;;;21.10;31.61;97624.59;5037417;28;715;-77
2022/09/20 03:16:06;;;;;;;;;;;;;;;21.09;31.71;97625.84;5037366;28;751;-77
2022/09/20 03:18:45;;;;;;;;;;;;;;;21.34;31.24;97622.25;5019623;28;741;-77
2022/09/20 03:24:49;;;;;;;;;;;;;;;20.97;31.94;97637.91;5037276;28;663;-77
2022/09/20 03:27:14;;;;;;;;;;;;;;;21.00;32.03;97639.88;5037154;28;711;-76
2022/09/20 03:29:39;;;;;;;;;;;;;;;21.25;32.46;97642.72;5037102;28;1976;-77
2022/09/20 03:32:17;;;;;;;;;;;;;;;21.43;32.12;97635.75;5037110;28;687;-76
2022/09/20 03:34:42;;;;;;;;;;;;;;;21.44;31.50;97634.50;4995438;28;903;-76
2022/09/20 03:37:15;;;;;;;;;;;;;;;21.26;32.00;97640.69;4995487;28;815;-76
2022/09/20 03:39:43;;;;;;;;;;;;;;;21.26;31.55;97644.31;4937665;29;1278;-77
2022/09/20 03:42:18;;;;;;;;;;;;;;;21.37;31.46;97638.34;4937485;29;996;-77
2022/09/20 03:45:02;;;;;;;;;;;;;;;21.16;32.09;97651.09;4941333;29;914;-77
2022/09/20 03:47:31;;;;;;;;;;;;;;;20.98;32.25;97645.16;4941719;29;823;-77
2022/09/20 03:50:04;;;;;;;;;;;;;;;21.19;31.73;97653.03;4941556;29;1983;-77
2022/09/20 03:52:38;;;;;;;;;;;;;;;21.21;31.77;97658.22;4941915;29;826;-77
2022/09/20 03:55:22;;;;;;;;;;;;;;;21.04;32.01;97657.53;4941395;29;910;-77
2022/09/20 03:58:11;;;;;;;;;;;;;;;21.06;32.12;97663.50;4941621;29;748;-77
2022/09/20 04:00:42;;;;;;;;;;;;;;;20.95;32.19;97671.53;4903537;29;1061;-77
2022/09/20 04:03:16;;;;;;;;;;;;;;;20.91;32.30;97673.66;4903537;29;975;-76
2022/09/20 04:05:58;;;;;;;;;;;;;;;20.81;32.31;97676.34;4922084;29;1147;-77
2022/09/20 04:08:42;;;;;;;;;;;;;;;20.79;32.46;97673.19;4941085;29;1975;-77
2022/09/20 04:11:26;;;;;;;;;;;;;;;20.92;32.34;97675.25;4954407;29;1027;-77
2022/09/20 04:13:54;;;;;;;;;;;;;;;21.27;32.50;97682.69;4960381;29;720;-76
2022/09/20 04:16:38;;;;;;;;;;;;;;;21.38;32.33;97678.75;4960327;29;712;-77
2022/09/20 04:19:21;;;;;;;;;;;;;;;21.15;32.24;97694.78;4960298;29;1046;-77
2022/09/20 04:21:52;;;;;;;;;;;;;;;21.09;32.15;97690.91;4960004;29;717;-77
2022/09/20 04:24:27;;;;;;;;;;;;;;;21.11;31.88;97688.41;4960301;29;1041;-77
2022/09/20 04:27:11;;;;;;;;;;;;;;;21.05;32.28;97702.31;4959995;29;807;-77
2022/09/20 04:33:28;;;;;;;;;;;;;;;20.80;32.38;97705.88;4960277;29;614;-76
2022/09/20 04:36:27;;;;;;;;;;;;;;;20.72;32.42;97707.28;4943516;29;780;-77
2022/09/20 04:39:05;;;;;;;;;;;;;;;20.99;31.98;97709.00;5027806;28;1158;-76
2022/09/20 04:41:43;;;;;;;;;;;;;;;21.01;31.96;97712.16;5039930;28;942;-77
2022/09/20 04:44:27;;;;;;;;;;;;;;;20.95;32.05;97713.97;5022165;28;719;-77
2022/09/20 04:46:52;;;;;;;;;;;;;;;20.98;32.12;97701.72;5040134;28;751;-77
2022/09/20 04:49:36;;;;;;;;;;;;;;;20.94;31.97;97695.41;5039713;28;1914;-78
2022/09/20 04:52:05;;;;;;;;;;;;;;;20.91;31.94;97697.06;5040011;28;683;-77
2022/09/20 04:54:33;;;;;;;;;;;;;;;20.83;32.11;97701.38;5038818;28;771;-78
2022/09/20 04:57:08;;;;;;;;;;;;;;;20.85;32.17;97695.25;5022012;28;873;-77
2022/09/20 04:59:45;;;;;;;;;;;;;;;21.09;31.72;97693.75;5039483;28;708;-79
2022/09/20 05:02:13;;;;;;;;;;;;;;;21.15;31.50;97703.25;5005573;28;1200;-78
2022/09/20 05:04:46;;;;;;;;;;;;;;;21.05;31.71;97701.53;5039119;28;874;-79
2022/09/20 05:07:29;;;;;;;;;;;;;;;21.22;31.37;97711.53;5021874;28;783;-78
2022/09/20 05:10:03;;;;;;;;;;;;;;;21.10;31.77;97709.47;5005225;28;1914;-78
2022/09/20 05:12:41;;;;;;;;;;;;;;;21.10;31.70;97711.50;5021719;28;748;-78
2022/09/20 05:15:07;;;;;;;;;;;;;;;21.02;31.86;97713.75;5039400;28;726;-77
2022/09/20 05:17:36;;;;;;;;;;;;;;;20.97;32.25;97709.41;5039105;28;813;-78
2022/09/20 05:20:23;;;;;;;;;;;;;;;21.14;32.13;97704.50;5021730;28;790;-77
2022/09/20 05:22:49;;;;;;;;;;;;;;;20.88;32.31;97708.47;5039014;28;827;-77
2022/09/20 05:25:33;;;;;;;;;;;;;;;21.11;32.06;97711.06;5039150;28;798;-77
2022/09/20 05:28:01;;;;;;;;;;;;;;;21.17;31.91;97726.22;5021824;28;1116;-77
2022/09/20 05:30:27;;;;;;;;;;;;;;;20.95;32.64;97730.94;5021367;28;1903;-77
2022/09/20 05:33:04;;;;;;;;;;;;;;;20.93;32.31;97739.03;5039119;28;838;-77
2022/09/20 05:35:33;;;;;;;;;;;;;;;21.06;32.11;97737.06;5021139;28;723;-77
2022/09/20 05:37:58;;;;;;;;;;;;;;;21.16;32.28;97741.63;5021049;28;1037;-77
2022/09/20 05:40:27;;;;;;;;;;;;;;;21.07;32.14;97744.31;5021198;28;735;-77
2022/09/20 05:43:23;;;;;;;;;;;;;;;21.00;32.21;97750.19;5020894;28;747;-78
2022/09/20 05:45:57;;;;;;;;;;;;;;;21.24;31.83;97754.34;4977602;28;1032;-78
2022/09/20 05:48:45;;;;;;;;;;;;;;;21.07;32.18;97749.97;4961455;28;1914;-77
2022/09/20 05:51:16;;;;;;;;;;;;;;;20.99;32.30;97759.91;4961402;28;784;-78
2022/09/20 05:54:05;;;;;;;;;;;;;;;21.00;32.31;97755.84;4960807;28;1289;-78
2022/09/20 05:56:30;;;;;;;;;;;;;;;21.12;32.29;97752.25;4958786;28;1240;-77
2022/09/20 05:59:00;;;;;;;;;;;;;;;21.20;32.05;97759.31;4967062;28;1353;-77
2022/09/20 06:01:31;;;;;;;;;;;;;;;21.12;32.32;97760.72;4936867;28;1493;-78
2022/09/20 06:03:59;;;;;;;;;;;;;;;21.26;31.87;97756.72;4960658;28;1366;-77
2022/09/20 06:06:29;;;;;;;;;;;;;;;21.02;32.41;97756.97;4959686;28;1346;-77
2022/09/20 06:08:56;;;;;;;;;;;;;;;21.15;31.87;97754.19;4944485;28;1910;-77
2022/09/20 06:11:22;;;;;;;;;;;;;;;21.14;31.99;97757.44;4960660;28;768;-77
2022/09/20 06:14:14;;;;;;;;;;;;;;;21.33;31.54;97751.66;4960595;28;1160;-77
2022/09/20 06:16:42;;;;;;;;;;;;;;;21.21;31.98;97748.78;4957188;29;1307;-78
2022/09/20 06:19:14;;;;;;;;;;;;;;;21.22;31.77;97751.16;4929523;29;1134;-78
2022/09/20 06:21:52;;;;;;;;;;;;;;;21.35;31.47;97753.22;4939645;29;1256;-78
2022/09/20 06:24:33;;;;;;;;;;;;;;;21.13;31.93;97753.03;4939883;29;1381;-78
2022/09/20 06:26:58;;;;;;;;;;;;;;;21.20;31.67;97752.84;4955564;29;1259;-78
2022/09/20 06:29:28;;;;;;;;;;;;;;;21.11;32.12;97755.53;4956747;29;2004;-77
2022/09/20 06:31:53;;;;;;;;;;;;;;;21.28;31.75;97760.66;4956873;28;1421;-77
2022/09/20 06:34:19;;;;;;;;;;;;;;;21.36;31.37;97769.78;4957175;29;1437;-77
2022/09/20 06:42:13;;;;;;;;;;;;;;;21.01;31.98;97780.03;4937506;29;1197;-77
2022/09/20 06:44:42;;;;;;;;;;;;;;;21.06;32.29;97787.97;4953523;29;1295;-77
2022/09/20 06:47:10;;;;;;;;;;;;;;;21.08;32.00;97791.94;4953166;28;1323;-78
2022/09/20 06:49:35;;;;;;;;;;;;;;;21.04;31.82;97790.47;4954055;29;1981;-78
2022/09/20 06:52:04;;;;;;;;;;;;;;;20.98;31.94;97795.84;4954318;29;1057;-78
2022/09/20 06:54:29;;;;;;;;;;;;;;;21.18;31.81;97795.72;4994617;28;1097;-78
2022/09/20 06:56:55;;;;;;;;;;;;;;;21.11;31.89;97795.13;4983008;28;1093;-77
2022/09/20 06:59:20;;;;;;;;;;;;;;;21.01;32.05;97802.66;5015904;28;866;-78
2022/09/20 07:01:46;;;;;;;;;;;;;;;21.26;31.48;97805.59;5015889;28;869;-78
2022/09/20 07:04:11;;;;;;;;;;;;;;;21.26;31.46;97808.44;4998970;28;866;-78
2022/09/20 07:06:37;;;;;;;;;;;;;;;21.05;32.02;97803.38;4999482;28;762;-78
2022/09/20 07:09:03;;;;;;;;;;;;;;;21.22;31.37;97807.72;4999187;28;1981;-78
2022/09/20 07:11:28;;;;;;;;;;;;;;;21.29;31.48;97796.19;4999102;28;719;-78
2022/09/20 07:13:54;;;;;;;;;;;;;;;21.05;31.64;97797.72;4999066;28;826;-77
2022/09/20 07:16:20;;;;;;;;;;;;;;;21.24;31.19;97796.78;5007259;28;820;-77
2022/09/20 07:18:45;;;;;;;;;;;;;;;20.97;31.87;97799.13;5003213;28;837;-77
2022/09/20 07:21:11;;;;;;;;;;;;;;;20.92;31.77;97799.69;5020070;28;1226;-78
2022/09/20 07:23:37;;;;;;;;;;;;;;;21.02;31.90;97802.22;5019553;28;1448;-77
2022/09/20 07:26:02;;;;;;;;;;;;;;;21.45;31.67;97800.25;5037004;28;839;-78
2022/09/20 07:28:28;;;;;;;;;;;;;;;21.43;32.34;97806.34;5002957;28;1987;-78
2022/09/20 07:30:54;;;;;;;;;;;;;;;21.58;32.17;97812.41;5053039;28;1094;-78
2022/09/20 07:33:20;;;;;;;;;;;;;;;21.31;32.24;97805.09;5019399;28;778;-78
2022/09/20 07:35:50;;;;;;;;;;;;;;;21.12;32.68;97808.81;5018988;28;901;-77
2022/09/20 07:38:15;;;;;;;;;;;;;;;21.07;32.14;97810.16;5037009;28;990;-77
2022/09/20 07:40:41;;;;;;;;;;;;;;;21.06;32.06;97804.97;5018803;28;858;-77
2022/09/20 07:43:07;;;;;;;;;;;;;;;20.92;32.13;97816.66;5003570;28;1156;-78
2022/09/20 07:45:33;;;;;;;;;;;;;;;20.97;32.19;97818.94;5003604;28;1184;-78
2022/09/20 07:48:04;;;;;;;;;;;;;;;21.05;31.70;97823.19;5019492;28;767;-77
2022/09/20 07:50:30;;;;;;;;;;;;;;;21.05;31.81;97812.66;4995201;28;1902;-77
2022/09/20 07:52:56;;;;;;;;;;;;;;;21.04;31.75;97810.28;4979110;28;902;-77
2022/09/20 07:55:21;;;;;;;;;;;;;;;21.13;31.43;97810.41;4994968;28;832;-77
2022/09/20 07:57:47;;;;;;;;;;;;;;;20.97;31.67;97810.47;4995820;28;804;-77
2022/09/20 08:00:13;;;;;;;;;;;;;;;20.90;31.43;97807.84;4995041;28;777;-77
2022/09/20 08:02:38;;;;;;;;;;;;;;;21.02;31.22;97798.59;4979275;28;811;-77
2022/09/20 08:05:04;;;;;;;;;;;;;;;20.98;31.42;97800.72;4978953;28;802;-78
2022/09/20 08:07:29;;;;;;;;;;;;;;;21.24;31.47;97805.28;4975769;28;1283;-78
2022/09/20 08:09:55;;;;;;;;;;;;;;;21.41;31.34;97802.41;4975610;28;1972;-78
2022/09/20 08:12:20;;;;;;;;;;;;;;;21.80;30.80;97799.19;4958895;28;1112;-77
2022/09/20 08:14:46;;;;;;;;;;;;;;;21.44;31.49;97793.78;4975579;28;949;-78
2022/09/20 08:17:11;;;;;;;;;;;;;;;21.37;31.06;97790.38;4975495;28;795;-78
2022/09/20 08:19:38;;;;;;;;;;;;;;;21.13;31.34;97810.41;4959204;28;831;-78
2022/09/20 08:22:04;;;;;;;;;;;;;;;20.91;31.40;97803.75;4990419;28;896;-78
2022/09/20 08:24:30;;;;;;;;;;;;;;;20.87;31.62;97808.72;4978858;28;993;-78
2022/09/20 08:26:55;;;;;;;;;;;;;;;21.02;31.65;97810.69;4993548;28;863;-77
2022/09/20 08:29:21;;;;;;;;;;;;;;;21.02;31.40;97809.91;4983222;28;2030;-77
2022/09/20 08:31:46;;;;;;;;;;;;;;;20.93;31.42;97806.91;5002070;28;735;-78
2022/09/20 08:34:13;;;;;;;;;;;;;;;20.83;31.44;97813.66;4962267;28;1145;-78
2022/09/20 08:36:40;;;;;;;;;;;;;;;21.01;31.21;97811.16;4962866;28;1044;-78
2022/09/20 08:39:05;;;;;;;;;;;;;;;21.01;30.78;97803.47;4979292;28;1197;-78
2022/09/20 08:41:32;;;;;;;;;;;;;;;20.84;31.20;97801.91;4921533;29;956;-78
2022/09/20 08:43:58;;;;;;;;;;;;;;;21.06;31.34;97799.31;4921439;29;811;-78
2022/09/20 08:46:34;;;;;;;;;;;;;;;21.36;31.42;97798.09;4921640;29;815;-78
2022/09/20 08:49:00;;;;;;;;;;;;;;;21.28;31.13;97788.97;4921678;29;1968;-78
2022/09/20 08:51:29;;;;;;;;;;;;;;;21.15;31.34;97796.63;4921332;29;1103;-78
2022/09/20 08:53:54;;;;;;;;;;;;;;;20.95;31.40;97798.81;4905878;29;837;-77
2022/09/20 08:56:20;;;;;;;;;;;;;;;21.10;31.03;97788.69;4921108;29;747;-78
2022/09/20 08:58:45;;;;;;;;;;;;;;;21.05;31.13;97786.41;4921150;29;838;-78
2022/09/20 09:01:13;;;;;;;;;;;;;;;20.96;31.12;97778.56;4921424;29;709;-78
2022/09/20 09:03:38;;;;;;;;;;;;;;;21.03;31.24;97783.22;4921387;29;851;-78
2022/09/20 09:06:09;;;;;;;;;;;;;;;21.19;30.54;97780.34;4921236;29;1146;-78
2022/09/20 09:08:35;;;;;;;;;;;;;;;21.02;30.80;97775.97;4920597;29;1985;-78
2022/09/20 09:11:08;;;;;;;;;;;;;;;21.29;30.96;97772.78;4927382;29;937;-76
2022/09/20 09:13:36;;;;;;;;;;;;;;;21.33;31.00;97768.63;4955805;29;851;-79
2022/09/20 09:16:09;;;;;;;;;;;;;;;21.36;30.90;97771.81;4959139;29;830;-79
2022/09/20 09:18:36;;;;;;;;;;;;;;;21.10;31.11;97763.22;4966277;28;1245;-78
2022/09/20 09:21:04;;;;;;;;;;;;;;;21.07;30.94;97766.94;5000057;28;1100;-78
2022/09/20 09:23:35;;;;;;;;;;;;;;;20.99;30.82;97762.75;4993808;28;1147;-78
2022/09/20 09:29:25;;;;;;;;;;;;;;;20.89;30.86;97758.16;4971933;28;1981;-79
2022/09/20 09:31:51;;;;;;;;;;;;;;;21.11;30.50;97770.47;4977138;28;1326;-79
2022/09/20 09:34:24;;;;;;;;;;;;;;;20.90;30.61;97768.25;4963961;28;1227;-79
2022/09/20 09:36:50;;;;;;;;;;;;;;;20.91;30.57;97779.09;4961525;28;1315;-79
2022/09/20 09:39:20;;;;;;;;;;;;;;;20.78;30.50;97772.59;4985477;28;1267;-78
2022/09/20 09:41:46;;;;;;;;;;;;;;;20.81;30.82;97777.34;4932054;29;1249;-78
2022/09/20 09:44:18;;;;;;;;;;;;;;;20.79;30.68;97779.84;4897235;29;1367;-78
2022/09/20 09:46:43;;;;;;;;;;;;;;;21.16;30.53;97778.41;4914078;29;1303;-78
2022/09/20 09:49:16;;;;;;;;;;;;;;;21.51;29.73;97773.78;4912800;29;1990;-79
2022/09/20 09:52:00;;;;;;;;;;;;;;;21.30;30.06;97786.53;4922454;29;1327;-78
2022/09/20 09:54:27;;;;;;;;;;;;;;;20.90;30.48;97782.38;4940477;29;1282;-78
2022/09/20 09:56:56;;;;;;;;;;;;;;;20.96;30.53;97783.41;4966507;28;1327;-79
2022/09/20 09:59:34;;;;;;;;;;;;;;;20.87;30.70;97791.75;4960361;28;1247;-79
2022/09/20 10:02:14;;;;;;;;;;;;;;;20.76;30.59;97784.34;4976529;28;1401;-79
2022/09/20 10:04:43;;;;;;;;;;;;;;;20.72;30.47;97777.97;4945185;28;1177;-79
2022/09/20 10:07:10;;;;;;;;;;;;;;;20.69;30.53;97786.56;4961353;28;936;-79
2022/09/20 10:13:16;;;;;;;;;;;;;;;20.45;31.13;97788.75;5017931;28;948;-80
2022/09/20 10:15:44;;;;;;;;;;;;;;;20.69;30.22;97778.88;5004329;28;1238;-79
2022/09/20 10:18:36;;;;;;;;;;;;;;;21.00;30.25;97778.47;5020836;28;763;-79
2022/09/20 10:21:16;;;;;;;;;;;;;;;21.41;29.27;97774.09;4996511;28;1378;-79
2022/09/20 10:27:18;;;;;;;;;;;;;;;20.90;30.34;97769.03;4996218;28;633;-79
2022/09/20 10:30:03;;;;;;;;;;;;;;;20.88;30.29;97776.34;4976212;28;1906;-79
2022/09/20 10:32:35;;;;;;;;;;;;;;;20.78;30.46;97776.22;4978307;28;1307;-79
2022/09/20 10:35:00;;;;;;;;;;;;;;;20.88;30.13;97770.69;4981808;28;1287;-79
2022/09/20 10:37:36;;;;;;;;;;;;;;;21.00;29.86;97767.94;4979574;28;1338;-79
2022/09/20 10:40:13;;;;;;;;;;;;;;;20.90;29.92;97773.91;4970654;28;1282;-79
2022/09/20 10:45:35;;;;;;;;;;;;;;;21.44;29.38;97761.88;4989525;28;1291;-79
2022/09/20 10:48:07;;;;;;;;;;;;;;;21.52;29.42;97771.75;5004995;28;1258;-79
2022/09/20 10:50:42;;;;;;;;;;;;;;;21.68;29.01;97768.03;5005572;28;1906;-79
2022/09/20 10:53:16;;;;;;;;;;;;;;;21.45;29.20;97771.94;4985510;28;1314;-78
2022/09/20 10:55:51;;;;;;;;;;;;;;;21.06;29.79;97754.03;4984142;28;1331;-79
2022/09/20 10:58:35;;;;;;;;;;;;;;;20.92;30.33;97772.19;4984065;28;1290;-79
2022/09/20 11:01:06;;;;;;;;;;;;;;;20.91;30.14;97758.50;5001035;28;1223;-79
2022/09/20 11:03:52;;;;;;;;;;;;;;;21.03;29.95;97766.25;5005629;28;1420;-79
2022/09/20 11:06:23;;;;;;;;;;;;;;;20.97;29.86;97756.72;4944793;29;1282;-79
2022/09/20 11:08:50;;;;;;;;;;;;;;;20.96;29.90;97766.44;4963412;28;1898;-78
2022/09/20 11:11:20;;;;;;;;;;;;;;;20.77;30.46;97756.84;4929609;29;1256;-78
2022/09/20 11:13:45;;;;;;;;;;;;;;;20.89;30.10;97758.97;4929760;29;1399;-79
2022/09/20 11:16:17;;;;;;;;;;;;;;;20.99;29.89;97771.22;4944086;29;1334;-79
2022/09/20 11:18:57;;;;;;;;;;;;;;;20.77;30.12;97762.50;4962711;28;1354;-79
2022/09/20 11:21:49;;;;;;;;;;;;;;;21.25;29.61;97767.25;4928944;29;1316;-80
2022/09/20 11:24:30;;;;;;;;;;;;;;;21.52;29.13;97757.59;4945307;29;1370;-79
2022/09/20 11:26:56;;;;;;;;;;;;;;;21.10;29.93;97754.75;4940407;29;1131;-78
2022/09/20 11:29:31;;;;;;;;;;;;;;;21.22;29.54;97759.63;4940221;29;1910;-78
2022/09/20 11:32:08;;;;;;;;;;;;;;;20.99;30.18;97759.91;4940398;29;720;-79
2022/09/20 11:34:36;;;;;;;;;;;;;;;20.95;29.91;97759.22;4921197;29;1318;-78
2022/09/20 11:37:02;;;;;;;;;;;;;;;20.81;30.32;97760.38;4905614;29;1281;-79
2022/09/20 11:39:56;;;;;;;;;;;;;;;20.99;29.77;97748.59;4918173;29;1285;-79
2022/09/20 11:42:27;;;;;;;;;;;;;;;21.03;29.87;97746.44;4899198;29;996;-78
2022/09/20 11:44:52;;;;;;;;;;;;;;;21.03;29.70;97749.25;4883329;29;907;-79
2022/09/20 11:47:27;;;;;;;;;;;;;;;21.23;29.55;97752.72;4899220;29;887;-79
2022/09/20 11:49:52;;;;;;;;;;;;;;;21.35;29.38;97753.22;4898723;29;1974;-79
2022/09/20 11:52:21;;;;;;;;;;;;;;;21.35;29.17;97753.22;4899135;29;899;-78
2022/09/20 11:54:53;;;;;;;;;;;;;;;21.19;29.35;97752.06;4883874;29;984;-80
2022/09/20 11:57:19;;;;;;;;;;;;;;;21.04;29.75;97756.53;4884005;29;765;-79
2022/09/20 12:00:03;;;;;;;;;;;;;;;21.11;29.55;97761.19;4883518;29;947;-78
2022/09/20 12:02:43;;;;;;;;;;;;;;;20.97;29.98;97756.72;4918003;29;734;-80
2022/09/20 12:05:26;;;;;;;;;;;;;;;20.97;29.66;97748.22;4933353;29;958;-78
2022/09/20 12:07:52;;;;;;;;;;;;;;;20.96;29.79;97760.78;4958776;29;768;-79
2022/09/20 12:10:17;;;;;;;;;;;;;;;20.64;30.26;97745.50;4938253;29;1915;-78
2022/09/20 12:12:44;;;;;;;;;;;;;;;20.93;29.92;97742.66;4959569;29;888;-79
2022/09/20 12:15:28;;;;;;;;;;;;;;;20.88;29.88;97748.91;4952960;29;1183;-79
2022/09/20 12:17:56;;;;;;;;;;;;;;;20.87;29.55;97746.50;4986865;28;930;-79
2022/09/20 12:20:33;;;;;;;;;;;;;;;21.35;29.00;97747.56;5021406;28;841;-79
2022/09/20 12:23:17;;;;;;;;;;;;;;;21.43;29.14;97743.28;5021723;28;775;-80
2022/09/20 12:25:59;;;;;;;;;;;;;;;21.08;29.55;97751.53;5021736;28;847;-79
2022/09/20 12:31:59;;;;;;;;;;;;;;;20.70;29.99;97743.72;5038220;28;613;-80
2022/09/20 12:34:24;;;;;;;;;;;;;;;20.80;29.91;97751.09;5021238;28;954;-79
2022/09/20 12:36:53;;;;;;;;;;;;;;;20.88;29.60;97743.25;5037828;28;775;-79
2022/09/20 12:42:34;;;;;;;;;;;;;;;20.58;30.11;97752.94;5037704;28;833;-79
2022/09/20 12:45:06;;;;;;;;;;;;;;;20.63;29.96;97758.03;5004049;28;971;-79
2022/09/20 12:47:32;;;;;;;;;;;;;;;20.70;29.94;97759.88;5011592;28;823;-79
2022/09/20 12:52:54;;;;;;;;;;;;;;;20.97;29.44;97762.38;5018731;28;763;-79
2022/09/20 12:58:55;;;;;;;;;;;;;;;20.99;29.39;97754.25;5019866;28;668;-79
2022/09/20 13:01:21;;;;;;;;;;;;;;;20.93;29.61;97744.69;5018361;28;905;-79
2022/09/20 13:03:47;;;;;;;;;;;;;;;21.02;29.15;97742.03;5019856;28;726;-79
2022/09/20 13:06:13;;;;;;;;;;;;;;;20.63;30.07;97743.91;5018518;28;743;-79
2022/09/20 13:08:39;;;;;;;;;;;;;;;20.66;29.84;97743.00;5035207;28;1906;-79
2022/09/20 13:11:23;;;;;;;;;;;;;;;20.70;29.71;97742.91;5019581;28;805;-78
2022/09/20 13:13:49;;;;;;;;;;;;;;;20.88;29.74;97748.06;5018612;28;1311;-79
2022/09/20 13:16:26;;;;;;;;;;;;;;;20.79;29.69;97743.88;5017820;28;877;-79
2022/09/20 13:19:28;;;;;;;;;;;;;;;20.90;29.54;97745.63;5034945;28;1170;-79
2022/09/20 13:21:59;;;;;;;;;;;;;;;20.84;29.90;97758.72;5014030;28;1124;-79
2022/09/20 13:24:25;;;;;;;;;;;;;;;20.91;29.39;97752.84;4997442;28;969;-79
2022/09/20 13:26:51;;;;;;;;;;;;;;;21.46;28.86;97746.03;4977889;28;811;-79
2022/09/20 13:32:51;;;;;;;;;;;;;;;21.21;29.29;97749.56;4977287;28;727;-79
2022/09/20 13:35:17;;;;;;;;;;;;;;;21.00;29.54;97755.84;4977023;28;960;-79
2022/09/20 13:37:49;;;;;;;;;;;;;;;20.95;29.38;97753.56;4977056;28;901;-79
2022/09/20 13:40:33;;;;;;;;;;;;;;;20.94;29.34;97747.09;4976846;28;1219;-80
2022/09/20 13:42:59;;;;;;;;;;;;;;;20.89;29.45;97755.34;4976937;28;763;-79
2022/09/20 13:45:24;;;;;;;;;;;;;;;20.76;29.86;97750.41;4938602;29;1206;-78
2022/09/20 13:47:50;;;;;;;;;;;;;;;20.92;29.39;97760.09;4922791;29;1107;-79
2022/09/20 13:50:23;;;;;;;;;;;;;;;20.89;29.65;97755.34;4881282;29;1902;-79
2022/09/20 13:52:58;;;;;;;;;;;;;;;21.37;28.65;97762.09;4897068;29;1190;-79
2022/09/20 13:55:34;;;;;;;;;;;;;;;21.41;28.81;97760.75;4896955;29;919;-79
2022/09/20 13:58:23;;;;;;;;;;;;;;;21.04;29.23;97762.97;4896839;29;884;-79
2022/09/20 14:00:50;;;;;;;;;;;;;;;21.05;29.29;97763.78;4881484;29;1003;-79
2022/09/20 14:03:16;;;;;;;;;;;;;;;20.94;29.54;97758.41;4896849;29;997;-79
2022/09/20 14:05:45;;;;;;;;;;;;;;;20.91;29.24;97769.81;4897080;29;872;-79
2022/09/20 14:08:12;;;;;;;;;;;;;;;21.17;28.90;97765.03;4896748;29;914;-79
2022/09/20 14:10:41;;;;;;;;;;;;;;;20.79;29.53;97763.66;4897070;29;1968;-79
2022/09/20 14:13:07;;;;;;;;;;;;;;;20.66;29.92;97771.28;4880715;29;1031;-79
2022/09/20 14:15:34;;;;;;;;;;;;;;;20.79;29.44;97766.50;4886578;29;799;-78
2022/09/20 14:18:01;;;;;;;;;;;;;;;20.63;29.80;97775.00;4903477;29;1005;-79
2022/09/20 14:20:27;;;;;;;;;;;;;;;21.00;29.17;97778.47;4903839;29;1056;-79
2022/09/20 14:22:54;;;;;;;;;;;;;;;21.32;28.62;97771.91;4903942;29;1164;-79
2022/09/20 14:25:20;;;;;;;;;;;;;;;21.51;28.34;97773.78;4934731;29;860;-79
2022/09/20 14:27:46;;;;;;;;;;;;;;;21.14;28.89;97777.25;4938807;29;872;-79